Time;durP1;ratioP1;P1;durP2;ratioP2;P2;SDS_P1;SDS_P2;PMS_P1;PMS_P2;Temp;Humidity;BMP_temperature;BMP_pressure;BME280_temperature;BME280_humidity;BME280_pressure;Samples;Min_cycle;Max_cycle;Signal;HPM_P1;HPM_P2
2023/05/11 00:01:50;;;;;;;0.30;0.30;;;;;;;25.99;36.32;99109.45;1894036;75;28193;-55
2023/05/11 00:04:39;;;;;;;0.20;0.20;;;;;;;25.99;36.31;99105.31;1886703;74;28193;-53
2023/05/11 00:07:27;;;;;;;0.20;0.20;;;;;;;25.99;36.34;99105.86;1894211;74;28103;-52
2023/05/11 00:10:16;;;;;;;0.10;0.10;;;;;;;25.97;36.37;99106.14;1878464;75;28164;-52
2023/05/11 00:13:04;;;;;;;0.10;0.10;;;;;;;25.98;36.36;99105.56;1889503;74;28152;-50
2023/05/11 00:15:53;;;;;;;0.10;0.10;;;;;;;25.97;36.40;99097.88;1885401;75;28174;-50
2023/05/11 00:18:41;;;;;;;0.88;0.28;;;;;;;25.97;36.36;99101.17;1848051;77;28127;-54
2023/05/11 00:21:29;;;;;;;0.13;0.13;;;;;;;25.98;36.37;99094.55;1802287;78;28307;-52
2023/05/11 00:24:18;;;;;;;0.20;0.10;;;;;;;25.98;36.38;99091.27;1835766;77;28166;-52
2023/05/11 00:27:06;;;;;;;0.35;0.20;;;;;;;25.98;36.40;99095.94;1848495;77;28192;-53
2023/05/11 00:29:54;;;;;;;0.00;0.00;;;;;;;25.98;36.37;99094.55;1844814;76;28274;-52
2023/05/11 00:32:44;;;;;;;0.30;0.30;;;;;;;25.97;36.38;99092.38;1881743;75;28124;-51
2023/05/11 00:35:33;;;;;;;0.10;0.10;;;;;;;25.99;36.37;99092.09;1876797;74;28009;-52
2023/05/11 00:38:21;;;;;;;0.20;0.20;;;;;;;25.98;36.35;99089.89;1893806;75;28115;-51
2023/05/11 00:41:09;;;;;;;0.30;0.30;;;;;;;25.98;36.37;99089.89;1905845;74;28121;-52
2023/05/11 00:43:58;;;;;;;0.20;0.20;;;;;;;25.97;36.38;99078.61;1870679;75;28202;-50
2023/05/11 00:46:47;;;;;;;0.10;0.10;;;;;;;25.99;36.35;99079.17;1885917;75;28164;-51
2023/05/11 00:49:35;;;;;;;0.10;0.10;;;;;;;25.98;36.39;99081.63;1874206;75;28224;-51
2023/05/11 00:52:23;;;;;;;0.10;0.10;;;;;;;25.95;36.42;99079.40;1878003;75;28512;-48
2023/05/11 00:55:13;;;;;;;0.80;0.20;;;;;;;25.94;36.53;99073.63;1901368;74;28516;-51
2023/05/11 00:58:04;;;;;;;0.20;0.20;;;;;;;25.90;36.46;99064.27;1887849;75;33064;-49
2023/05/11 01:00:53;;;;;;;0.00;0.00;;;;;;;25.96;36.43;99068.69;1899299;75;27635;-53
2023/05/11 01:03:41;;;;;;;0.20;0.20;;;;;;;25.97;36.40;99066.77;1901460;74;28072;-47
2023/05/11 01:06:41;;;;;;;0.23;0.23;;;;;;;25.98;36.32;99063.73;1903150;74;28136;-52
2023/05/11 01:09:51;;;;;;;0.20;0.20;;;;;;;25.98;36.34;99065.66;1822779;76;28103;-50
2023/05/11 01:12:57;;;;;;;0.10;0.10;;;;;;;25.96;36.38;99061.80;1861982;75;28057;-50
2023/05/11 01:15:55;;;;;;;0.00;0.00;;;;;;;25.94;36.41;99060.41;1889289;74;28085;-51
2023/05/11 01:18:54;;;;;;;0.13;0.13;;;;;;;25.92;36.41;99066.20;1848633;76;28138;-49
2023/05/11 01:21:44;;;;;;;0.83;0.27;;;;;;;25.92;36.42;99069.48;1897996;74;28097;-52
2023/05/11 01:25:02;;;;;;;0.05;0.05;;;;;;;25.91;36.41;99072.78;1878974;75;28169;-50
2023/05/11 01:28:10;;;;;;;0.17;0.17;;;;;;;25.90;36.46;99071.69;1872357;75;28083;-50
2023/05/11 01:31:04;;;;;;;0.00;0.00;;;;;;;25.88;36.47;99070.55;1881422;75;28203;-51
2023/05/11 01:33:56;;;;;;;0.15;0.15;;;;;;;25.87;36.52;99066.16;1876436;75;28295;-51
2023/05/11 01:36:47;;;;;;;0.20;0.20;;;;;;;25.87;36.50;99064.78;1868708;75;31101;-53
2023/05/11 01:39:38;;;;;;;1.10;0.10;;;;;;;25.89;36.50;99066.72;1882986;75;28114;-49
2023/05/11 01:42:32;;;;;;;0.20;0.20;;;;;;;25.89;36.45;99062.59;1904925;74;28047;-51
2023/05/11 01:45:22;;;;;;;0.20;0.20;;;;;;;25.89;36.46;99065.89;1880642;75;28108;-52
2023/05/11 01:48:14;;;;;;;0.30;0.30;;;;;;;25.89;36.44;99063.13;1875503;75;28192;-50
2023/05/11 01:51:04;;;;;;;0.08;0.08;;;;;;;25.89;36.44;99073.59;1873106;75;28072;-50
2023/05/11 01:53:54;;;;;;;0.10;0.10;;;;;;;25.89;36.45;99065.89;1895538;75;28064;-49
2023/05/11 01:56:46;;;;;;;0.20;0.20;;;;;;;25.89;36.44;99074.98;1869008;76;28130;-49
2023/05/11 01:59:36;;;;;;;0.40;0.30;;;;;;;25.90;36.43;99067.02;1885761;74;28408;-50
2023/05/11 02:02:26;;;;;;;0.10;0.10;;;;;;;25.92;36.37;99072.23;1880460;74;28134;-51
2023/05/11 02:05:20;;;;;;;0.20;0.20;;;;;;;25.91;36.31;99071.41;1888949;74;28099;-50
2023/05/11 02:08:10;;;;;;;1.20;0.30;;;;;;;25.93;36.22;99073.34;1899288;75;28130;-51
2023/05/11 02:11:01;;;;;;;0.10;0.10;;;;;;;25.90;36.20;99075.81;1886398;75;28173;-52
2023/05/11 02:13:51;;;;;;;0.10;0.10;;;;;;;25.88;36.15;99070.55;1863301;75;28117;-50
2023/05/11 02:16:40;;;;;;;0.03;0.03;;;;;;;25.90;36.12;99079.40;1870519;75;28119;-51
2023/05/11 02:19:32;;;;;;;0.05;0.05;;;;;;;25.90;36.10;99073.06;1891782;74;28060;-50
2023/05/11 02:22:23;;;;;;;0.20;0.20;;;;;;;25.88;36.11;99067.80;1886782;75;28194;-51
2023/05/11 02:25:12;;;;;;;0.10;0.10;;;;;;;25.88;36.06;99066.42;1904824;74;28117;-49
2023/05/11 02:28:01;;;;;;;0.20;0.20;;;;;;;25.88;36.04;99069.17;1871589;75;28102;-51
2023/05/11 02:30:52;;;;;;;0.00;0.00;;;;;;;25.88;35.98;99067.80;1894358;74;28107;-50
2023/05/11 02:33:47;;;;;;;0.30;0.20;;;;;;;25.86;36.03;99067.78;1888440;74;28084;-48
2023/05/11 02:36:38;;;;;;;0.20;0.20;;;;;;;25.88;36.00;99062.30;1915122;74;28135;-48
2023/05/11 02:39:31;;;;;;;0.10;0.10;;;;;;;25.86;36.02;99061.74;1893431;74;28528;-53
2023/05/11 02:42:21;;;;;;;0.20;0.20;;;;;;;25.85;36.00;99056.52;1907270;74;28118;-51
2023/05/11 02:45:14;;;;;;;0.40;0.40;;;;;;;25.85;35.96;99057.35;1865642;76;28136;-50
2023/05/11 02:48:05;;;;;;;0.10;0.10;;;;;;;25.86;35.78;99054.02;1861740;76;28297;-51
2023/05/11 02:50:56;;;;;;;0.28;0.28;;;;;;;25.83;35.86;99047.16;1839198;77;28571;-48
2023/05/11 02:53:49;;;;;;;0.80;0.20;;;;;;;25.84;35.90;99050.72;1841900;77;30229;-51
2023/05/11 02:56:39;;;;;;;0.20;0.20;;;;;;;25.85;35.83;99049.09;1854179;76;28258;-50
2023/05/11 02:59:28;;;;;;;0.20;0.20;;;;;;;25.84;35.80;99044.67;1857661;76;28182;-49
2023/05/11 03:02:16;;;;;;;0.10;0.10;;;;;;;25.86;35.79;99046.61;1863521;76;28129;-52
2023/05/11 03:05:05;;;;;;;1.57;0.17;;;;;;;25.87;35.75;99040.56;1872603;76;28206;-49
2023/05/11 03:07:57;;;;;;;0.20;0.20;;;;;;;25.83;35.81;99044.95;1873479;76;28238;-49
2023/05/11 03:10:46;;;;;;;0.20;0.10;;;;;;;25.85;35.77;99040.84;1843800;76;28205;-51
2023/05/11 03:13:35;;;;;;;0.10;0.10;;;;;;;25.85;35.84;99039.46;1851360;76;28240;-52
2023/05/11 03:16:26;;;;;;;0.30;0.30;;;;;;;25.85;35.78;99035.33;1858905;76;28291;-51
2023/05/11 03:19:16;;;;;;;0.20;0.10;;;;;;;25.80;35.78;99035.30;1872249;76;28278;-50
2023/05/11 03:22:06;;;;;;;0.20;0.20;;;;;;;25.83;35.82;99037.53;1871805;76;28640;-47
2023/05/11 03:24:54;;;;;;;0.80;0.30;;;;;;;25.83;35.86;99036.16;1834335;77;28229;-48
2023/05/11 03:27:45;;;;;;;0.10;0.10;;;;;;;25.81;35.84;99030.06;1837966;76;28543;-47
2023/05/11 03:30:36;;;;;;;0.15;0.15;;;;;;;25.83;35.80;99027.90;1858709;76;33152;-51
2023/05/11 03:33:25;;;;;;;0.20;0.20;;;;;;;25.84;35.75;99032.83;1865792;76;28216;-47
2023/05/11 03:36:15;;;;;;;0.13;0.13;;;;;;;25.82;35.76;99028.98;1863890;76;28205;-52
2023/05/11 03:39:05;;;;;;;0.20;0.20;;;;;;;25.84;35.83;99030.08;1898922;75;28111;-52
2023/05/11 03:41:55;;;;;;;0.20;0.20;;;;;;;25.81;35.74;99023.19;1874659;75;28095;-49
2023/05/11 03:44:46;;;;;;;0.20;0.20;;;;;;;25.83;35.74;99018.81;1887239;75;28149;-52
2023/05/11 03:47:35;;;;;;;0.30;0.30;;;;;;;25.84;35.73;99019.91;1885381;75;28564;-51
2023/05/11 03:50:25;;;;;;;0.45;0.23;;;;;;;25.81;35.73;99018.25;1893894;75;28653;-50
2023/05/11 03:53:15;;;;;;;0.20;0.20;;;;;;;25.84;35.77;99016.32;1897003;75;28126;-48
2023/05/11 03:56:10;;;;;;;0.40;0.40;;;;;;;25.83;35.78;99009.17;1890371;75;28088;-51
2023/05/11 03:58:55;;;;;;;0.20;0.20;;;;;;;25.79;35.75;99013.00;1889897;75;28060;-51
2023/05/11 04:01:44;;;;;;;0.17;0.17;;;;;;;25.79;35.83;98995.69;1876439;75;28132;-51
2023/05/11 04:04:33;;;;;;;0.13;0.13;;;;;;;25.75;35.81;98990.41;1882198;75;28098;-48
2023/05/11 04:07:21;;;;;;;0.20;0.20;;;;;;;25.80;35.78;98996.78;1888801;75;28378;-52
2023/05/11 04:10:10;;;;;;;0.08;0.08;;;;;;;25.78;35.78;98989.34;1888704;75;28166;-52
2023/05/11 04:12:59;;;;;;;0.30;0.25;;;;;;;25.79;35.83;98992.36;1884874;75;28059;-48
2023/05/11 04:15:47;;;;;;;0.25;0.20;;;;;;;25.79;35.85;98993.73;1863966;75;31447;-47
2023/05/11 04:18:36;;;;;;;0.20;0.20;;;;;;;25.76;35.86;98997.05;1819501;78;28195;-51
2023/05/11 04:21:24;;;;;;;0.10;0.10;;;;;;;25.79;35.78;99000.61;1877606;75;28267;-50
2023/05/11 04:24:13;;;;;;;0.20;0.20;;;;;;;25.78;35.84;99010.52;1901009;75;28077;-50
2023/05/11 04:27:01;;;;;;;0.20;0.20;;;;;;;25.78;35.83;99002.27;1856572;76;28273;-53
2023/05/11 04:29:49;;;;;;;1.00;0.13;;;;;;;25.77;35.89;99003.35;1890588;75;28096;-54
2023/05/11 04:32:38;;;;;;;0.10;0.10;;;;;;;25.78;35.88;99009.98;1893318;75;28077;-50
2023/05/11 04:35:26;;;;;;;1.05;0.15;;;;;;;25.76;36.24;98999.80;1883688;73;28077;-49
2023/05/11 04:38:15;;;;;;;0.17;0.10;;;;;;;25.75;36.36;99000.88;1887832;75;28432;-47
2023/05/11 04:41:05;;;;;;;0.10;0.10;;;;;;;25.75;36.41;98998.67;1892701;73;28191;-49
2023/05/11 04:43:54;;;;;;;0.20;0.20;;;;;;;25.72;36.47;98995.91;1899688;75;28104;-48
2023/05/11 04:46:44;;;;;;;0.20;0.20;;;;;;;25.75;36.51;98997.30;1880672;75;28095;-52
2023/05/11 04:49:33;;;;;;;0.20;0.10;;;;;;;25.75;36.50;98997.30;1899883;73;28172;-47
2023/05/11 04:52:22;;;;;;;0.20;0.20;;;;;;;25.73;36.53;98998.11;1884031;75;28116;-50
2023/05/11 04:55:10;;;;;;;0.13;0.13;;;;;;;25.71;36.58;98997.02;1891834;75;38397;-48
2023/05/11 04:57:59;;;;;;;0.10;0.10;;;;;;;25.72;36.58;98997.27;1848580;76;28278;-49
2023/05/11 05:00:48;;;;;;;0.10;0.10;;;;;;;25.71;36.55;99001.14;1889091;75;28119;-52
2023/05/11 05:03:37;;;;;;;0.03;0.03;;;;;;;25.69;36.60;99002.50;1888690;75;28063;-52
2023/05/11 05:06:25;;;;;;;0.23;0.13;;;;;;;25.70;36.66;99006.34;1898948;75;28084;-50
2023/05/11 05:09:13;;;;;;;0.15;0.15;;;;;;;25.71;36.66;99008.02;1899058;75;28194;-49
2023/05/11 05:12:02;;;;;;;0.20;0.20;;;;;;;25.70;36.66;99013.77;1882068;75;28078;-51
2023/05/11 05:14:50;;;;;;;0.50;0.20;;;;;;;25.69;36.76;99011.59;1892175;75;28157;-48
2023/05/11 05:17:39;;;;;;;1.30;0.20;;;;;;;25.65;36.48;99014.56;1912355;73;28056;-50
2023/05/11 05:20:28;;;;;;;0.17;0.17;;;;;;;25.65;36.06;99015.94;1846564;76;28278;-50
2023/05/11 05:23:16;;;;;;;0.20;0.20;;;;;;;25.64;35.50;99006.05;1807429;78;28180;-51
2023/05/11 05:26:05;;;;;;;0.25;0.20;;;;;;;25.64;35.50;99006.05;1892695;75;28051;-51
2023/05/11 05:28:55;;;;;;;0.10;0.10;;;;;;;25.69;35.59;99014.88;1851214;75;28178;-50
2023/05/11 05:31:44;;;;;;;0.30;0.30;;;;;;;25.69;35.32;99017.63;1892185;75;28150;-53
2023/05/11 05:34:34;;;;;;;0.10;0.10;;;;;;;25.70;35.20;99017.35;1895032;75;28119;-51
2023/05/11 05:37:22;;;;;;;0.17;0.17;;;;;;;25.68;35.18;99018.70;1897477;73;32988;-51
2023/05/11 05:40:11;;;;;;;0.30;0.30;;;;;;;25.66;35.09;99020.36;1867940;75;28015;-53
2023/05/11 05:43:01;;;;;;;0.30;0.30;;;;;;;25.68;35.05;99019.55;1858713;75;28238;-48
2023/05/11 05:45:50;;;;;;;1.65;0.20;;;;;;;25.68;35.00;99020.92;1868626;75;28194;-52
2023/05/11 05:48:39;;;;;;;1.60;0.30;;;;;;;25.60;35.42;99023.35;1893749;75;28142;-50
2023/05/11 05:51:27;;;;;;;0.30;0.30;;;;;;;25.57;34.81;99015.08;1887489;75;28217;-54
2023/05/11 05:54:15;;;;;;;1.40;0.10;;;;;;;25.63;34.34;99014.55;1900797;75;28113;-52
2023/05/11 05:57:05;;;;;;;0.47;0.20;;;;;;;25.59;34.73;99010.14;1851570;77;28177;-49
2023/05/11 05:59:53;;;;;;;0.23;0.20;;;;;;;25.56;35.24;99014.79;1821648;77;28441;-53
2023/05/11 06:02:42;;;;;;;0.23;0.20;;;;;;;25.52;35.69;99010.92;1818380;78;28269;-52
2023/05/11 06:05:31;;;;;;;0.20;0.20;;;;;;;25.55;35.69;99015.91;1848067;77;28452;-53
2023/05/11 06:08:21;;;;;;;0.30;0.10;;;;;;;25.59;35.58;99012.89;1841694;77;28166;-50
2023/05/11 06:11:10;;;;;;;0.20;0.20;;;;;;;25.57;35.77;99005.45;1798894;78;28281;-52
2023/05/11 06:13:59;;;;;;;0.20;0.20;;;;;;;25.59;35.58;99004.64;1848529;77;28149;-48
2023/05/11 06:16:48;;;;;;;0.30;0.30;;;;;;;25.63;35.52;99005.75;1811776;78;31222;-53
2023/05/11 06:19:37;;;;;;;0.40;0.30;;;;;;;25.62;35.64;99001.37;1836138;77;28167;-53
2023/05/11 06:22:25;;;;;;;0.10;0.10;;;;;;;25.59;35.77;99000.52;1806548;78;28276;-53
2023/05/11 06:25:14;;;;;;;0.20;0.20;;;;;;;25.66;35.75;99002.48;1885303;74;28240;-53
2023/05/11 06:28:04;;;;;;;0.35;0.20;;;;;;;25.64;35.88;98995.05;1899538;74;28018;-54
2023/05/11 06:30:58;;;;;;;0.90;0.20;;;;;;;25.64;35.90;99002.47;1900247;75;28143;-55
2023/05/11 06:33:47;;;;;;;0.37;0.37;;;;;;;25.64;36.01;98997.80;1900821;74;28127;-52
2023/05/11 06:36:36;;;;;;;0.20;0.20;;;;;;;25.58;36.26;98993.34;1897036;75;28071;-49
2023/05/11 06:39:27;;;;;;;0.20;0.20;;;;;;;25.60;36.42;98995.28;1892271;74;28247;-55
2023/05/11 06:42:15;;;;;;;0.20;0.20;;;;;;;25.58;36.66;98989.79;1904645;74;28091;-53
2023/05/11 06:45:04;;;;;;;0.40;0.40;;;;;;;25.59;36.81;98992.80;1897813;75;28189;-53
2023/05/11 06:47:53;;;;;;;0.30;0.30;;;;;;;25.62;36.73;98993.11;1851776;76;28193;-51
2023/05/11 06:50:44;;;;;;;0.20;0.17;;;;;;;25.62;36.82;98993.11;1898571;75;28105;-51
2023/05/11 06:53:34;;;;;;;0.20;0.20;;;;;;;25.63;36.79;98993.92;1889949;74;28080;-53
2023/05/11 06:56:22;;;;;;;0.30;0.30;;;;;;;25.62;36.84;98991.73;1876841;75;38493;-51
2023/05/11 06:59:11;;;;;;;0.20;0.20;;;;;;;25.64;36.70;98989.55;1878264;75;28049;-53
2023/05/11 07:01:59;;;;;;;0.20;0.20;;;;;;;25.66;36.74;98989.27;1890676;74;28122;-51
2023/05/11 07:04:48;;;;;;;1.40;0.30;;;;;;;25.64;36.79;98985.42;1905978;74;28157;-50
2023/05/11 07:07:36;;;;;;;0.13;0.13;;;;;;;25.69;36.92;98992.87;1854534;76;28146;-54
2023/05/11 07:10:25;;;;;;;0.37;0.37;;;;;;;25.66;36.92;98989.27;1871731;75;28629;-53
2023/05/11 07:13:13;;;;;;;0.30;0.20;;;;;;;25.64;37.01;98992.30;1886516;75;28343;-55
2023/05/11 07:16:02;;;;;;;0.68;0.30;;;;;;;25.63;37.05;98992.55;1870105;75;28202;-53
2023/05/11 07:18:50;;;;;;;0.20;0.20;;;;;;;25.62;37.09;98995.03;1835194;76;28143;-53
2023/05/11 07:21:39;;;;;;;0.60;0.30;;;;;;;25.62;37.14;98991.73;1876860;75;28132;-49
2023/05/11 07:24:27;;;;;;;0.40;0.30;;;;;;;25.64;37.13;98997.80;1890255;75;28173;-52
2023/05/11 07:27:16;;;;;;;0.72;0.25;;;;;;;25.64;37.05;98994.21;1897277;74;28176;-53
2023/05/11 07:30:05;;;;;;;0.20;0.20;;;;;;;25.63;37.09;98989.25;1886039;75;28048;-55
2023/05/11 07:32:53;;;;;;;0.10;0.10;;;;;;;25.63;37.14;98993.38;1888138;75;28628;-50
2023/05/11 07:35:42;;;;;;;0.10;0.10;;;;;;;25.62;37.17;98992.28;1879785;74;28173;-49
2023/05/11 07:38:30;;;;;;;0.60;0.40;;;;;;;25.64;37.09;98988.17;1897636;74;28504;-49
2023/05/11 07:41:20;;;;;;;0.30;0.20;;;;;;;25.59;37.08;98970.26;1891234;75;28198;-50
2023/05/11 07:44:09;;;;;;;0.20;0.20;;;;;;;25.64;37.01;98979.92;1891621;75;28071;-53
2023/05/11 07:46:57;;;;;;;0.20;0.20;;;;;;;25.63;37.09;98983.75;1878493;75;28117;-52
2023/05/11 07:49:51;;;;;;;0.40;0.20;;;;;;;25.63;37.08;98975.50;1888865;75;28180;-54
2023/05/11 07:52:35;;;;;;;0.13;0.13;;;;;;;25.65;36.96;98980.18;1883822;75;28122;-53
2023/05/11 07:55:29;;;;;;;0.40;0.40;;;;;;;25.67;36.90;98971.11;1891239;75;28171;-54
2023/05/11 07:58:16;;;;;;;0.33;0.33;;;;;;;25.68;36.86;98966.44;1859347;76;28183;-50
2023/05/11 08:01:06;;;;;;;0.30;0.30;;;;;;;25.68;36.83;98961.77;1922809;73;28302;-51
2023/05/11 08:03:54;;;;;;;0.20;0.20;;;;;;;25.69;36.80;98958.48;1861867;75;28141;-52
2023/05/11 08:06:43;;;;;;;0.10;0.10;;;;;;;25.72;36.77;98956.58;1850905;77;28145;-51
2023/05/11 08:09:32;;;;;;;0.20;0.20;;;;;;;25.71;36.80;98951.63;1851537;75;28067;-52
2023/05/11 08:12:20;;;;;;;0.37;0.37;;;;;;;25.70;36.79;98955.99;1822023;77;28286;-52
2023/05/11 08:15:10;;;;;;;0.20;0.20;;;;;;;25.71;36.75;98948.03;1894675;75;28241;-53
2023/05/11 08:17:58;;;;;;;0.55;0.30;;;;;;;25.70;36.76;98952.70;1898715;75;28122;-52
2023/05/11 08:20:46;;;;;;;0.23;0.23;;;;;;;25.70;36.71;98947.73;1881295;75;28129;-53
2023/05/11 08:23:34;;;;;;;0.20;0.20;;;;;;;25.71;36.70;98948.87;1882916;75;28168;-53
2023/05/11 08:26:23;;;;;;;0.20;0.20;;;;;;;25.74;36.63;98948.88;1896090;75;28068;-53
2023/05/11 08:29:12;;;;;;;0.17;0.17;;;;;;;25.71;36.61;98943.37;1846956;76;28148;-52
2023/05/11 08:32:01;;;;;;;0.20;0.20;;;;;;;25.73;36.63;98945.30;1893452;75;28341;-53
2023/05/11 08:34:49;;;;;;;0.20;0.20;;;;;;;25.72;36.63;98939.50;1889895;75;28088;-54
2023/05/11 08:37:38;;;;;;;0.53;0.15;;;;;;;25.74;36.63;98933.75;1910505;73;28001;-52
2023/05/11 08:40:28;;;;;;;0.10;0.10;;;;;;;25.71;36.70;98932.91;1881835;75;28217;-49
2023/05/11 08:43:18;;;;;;;0.20;0.20;;;;;;;25.73;36.64;98923.83;1867443;75;32053;-54
2023/05/11 08:46:10;;;;;;;0.20;0.20;;;;;;;25.66;36.71;98913.63;1872313;75;28047;-52
2023/05/11 08:48:59;;;;;;;0.35;0.20;;;;;;;25.67;36.73;98922.97;1879792;75;28133;-50
2023/05/11 08:51:47;;;;;;;0.20;0.20;;;;;;;25.67;36.73;98922.17;1843364;77;28185;-54
2023/05/11 08:54:36;;;;;;;0.25;0.25;;;;;;;25.72;36.63;98920.24;1823637;78;28174;-52
2023/05/11 08:57:27;;;;;;;0.20;0.20;;;;;;;25.74;36.47;98920.80;1830746;77;28184;-53
2023/05/11 09:00:16;;;;;;;0.00;0.00;;;;;;;25.76;36.49;98916.42;1826938;77;28189;-53
2023/05/11 09:03:07;;;;;;;0.03;0.03;;;;;;;25.73;36.47;98914.20;1825268;77;28224;-49
2023/05/11 09:05:56;;;;;;;0.00;0.00;;;;;;;25.76;36.41;98909.00;1826669;77;28252;-52
2023/05/11 09:08:46;;;;;;;0.10;0.10;;;;;;;25.79;36.31;98904.89;1848619;77;28282;-52
2023/05/11 09:11:34;;;;;;;1.10;0.20;;;;;;;25.79;36.30;98902.94;1852251;77;28263;-51
2023/05/11 09:14:23;;;;;;;0.20;0.20;;;;;;;25.79;36.28;98890.56;1805230;78;28272;-52
2023/05/11 09:17:11;;;;;;;0.25;0.25;;;;;;;25.78;36.29;98899.09;1835232;77;28171;-52
2023/05/11 09:20:04;;;;;;;0.20;0.20;;;;;;;25.80;36.24;98893.60;1838811;77;28126;-54
2023/05/11 09:22:52;;;;;;;1.47;0.23;;;;;;;25.78;36.25;98884.80;1822670;78;28402;-49
2023/05/11 09:25:40;;;;;;;0.13;0.13;;;;;;;25.78;36.21;98886.72;1846517;77;28279;-48
2023/05/11 09:28:29;;;;;;;0.20;0.20;;;;;;;25.79;36.19;98886.43;1839407;77;28177;-55
2023/05/11 09:31:40;;;;;;;0.20;0.20;;;;;;;25.78;36.16;98881.21;1843761;77;28192;-50
2023/05/11 09:34:28;;;;;;;0.00;0.00;;;;;;;25.77;36.19;98875.42;1813286;78;28284;-54
2023/05/11 09:37:18;;;;;;;0.20;0.20;;;;;;;25.74;36.23;98878.73;1841376;77;31203;-52
2023/05/11 09:40:09;;;;;;;0.50;0.30;;;;;;;25.76;36.20;98875.98;1817469;78;28267;-53
2023/05/11 09:42:58;;;;;;;0.23;0.20;;;;;;;25.75;36.14;98882.58;1854748;76;28661;-54
2023/05/11 09:45:49;;;;;;;0.10;0.10;;;;;;;25.75;36.12;98873.48;1809181;77;28146;-52
2023/05/11 09:48:38;;;;;;;0.05;0.05;;;;;;;25.75;36.12;98872.11;1821133;78;28286;-52
2023/05/11 09:51:31;;;;;;;0.15;0.15;;;;;;;25.76;36.10;98865.53;1804377;78;28228;-54
2023/05/11 09:54:21;;;;;;;0.20;0.20;;;;;;;25.75;36.11;98866.06;1845127;77;28192;-53
2023/05/11 09:57:16;;;;;;;0.17;0.17;;;;;;;25.75;36.09;98872.95;1792273;78;28336;-50
2023/05/11 10:00:06;;;;;;;0.20;0.20;;;;;;;25.76;36.10;98864.16;1817400;78;28361;-52
2023/05/11 10:03:05;;;;;;;0.30;0.20;;;;;;;25.74;36.07;98860.84;1813131;78;28240;-53
2023/05/11 10:05:59;;;;;;;0.20;0.20;;;;;;;25.75;36.08;98855.61;1819857;78;28406;-54
2023/05/11 10:08:48;;;;;;;0.15;0.15;;;;;;;25.74;36.05;98860.84;1810266;78;28854;-52
2023/05/11 10:11:38;;;;;;;0.60;0.28;;;;;;;25.74;36.05;98853.39;1820185;78;28283;-53
2023/05/11 10:14:28;;;;;;;0.20;0.20;;;;;;;25.76;35.96;98842.14;1841982;77;28148;-50
2023/05/11 10:17:18;;;;;;;0.20;0.20;;;;;;;25.75;35.96;98848.19;1852402;77;28193;-50
2023/05/11 10:20:08;;;;;;;0.15;0.15;;;;;;;25.76;35.98;98845.73;1848205;77;28181;-52
2023/05/11 10:22:57;;;;;;;0.20;0.20;;;;;;;25.76;35.97;98845.73;1823254;77;28282;-50
2023/05/11 10:25:46;;;;;;;0.13;0.13;;;;;;;25.76;35.92;98842.97;1846879;77;28201;-51
2023/05/11 10:28:36;;;;;;;0.13;0.13;;;;;;;25.76;35.99;98831.14;1829905;76;28185;-51
2023/05/11 10:31:25;;;;;;;0.28;0.28;;;;;;;25.76;36.00;98834.72;1834722;77;28145;-51
2023/05/11 10:34:15;;;;;;;0.10;0.10;;;;;;;25.76;35.97;98837.47;1849453;77;30201;-51
2023/05/11 10:37:04;;;;;;;0.20;0.20;;;;;;;25.74;36.03;98832.77;1850326;77;28146;-53
2023/05/11 10:39:52;;;;;;;0.13;0.13;;;;;;;25.75;36.02;98830.30;1848615;77;28189;-54
2023/05/11 10:42:44;;;;;;;0.10;0.10;;;;;;;25.76;35.95;98833.34;1814937;77;28472;-53
2023/05/11 10:45:52;;;;;;;0.10;0.10;;;;;;;25.75;35.97;98828.93;1888721;75;28162;-54
2023/05/11 10:48:52;;;;;;;0.20;0.20;;;;;;;25.76;36.01;98831.14;1908276;74;28374;-51
2023/05/11 10:51:52;;;;;;;0.13;0.13;;;;;;;25.76;36.00;98825.63;1889080;75;28114;-54
2023/05/11 10:54:44;;;;;;;0.23;0.23;;;;;;;25.70;36.04;98822.58;1887663;75;28193;-53
2023/05/11 10:58:10;;;;;;;0.20;0.20;;;;;;;25.72;36.06;98815.70;1895807;75;28135;-53
2023/05/11 11:01:21;;;;;;;0.43;0.33;;;;;;;25.72;36.04;98809.41;1882502;74;28087;-56
2023/05/11 11:04:13;;;;;;;0.10;0.10;;;;;;;25.69;36.05;98809.94;1884475;75;28052;-51
2023/05/11 11:07:07;;;;;;;0.20;0.20;;;;;;;25.67;36.12;98800.56;1841084;76;28206;-50
2023/05/11 11:10:05;;;;;;;0.10;0.10;;;;;;;25.69;36.13;98798.39;1878355;74;28178;-49
2023/05/11 11:13:08;;;;;;;0.13;0.13;;;;;;;25.71;36.10;98797.56;1872548;75;28080;-49
2023/05/11 11:16:00;;;;;;;0.20;0.20;;;;;;;25.72;36.02;98786.02;1885750;75;28134;-53
2023/05/11 11:18:49;;;;;;;0.20;0.20;;;;;;;25.71;36.05;98782.44;1901055;75;28188;-50
2023/05/11 11:21:43;;;;;;;0.20;0.20;;;;;;;25.71;36.10;98768.68;1879589;75;28127;-50
2023/05/11 11:24:40;;;;;;;0.17;0.17;;;;;;;25.73;36.00;98772.52;1891350;75;28336;-51
2023/05/11 11:27:43;;;;;;;0.20;0.20;;;;;;;25.72;36.00;98770.89;1875900;75;28235;-53
2023/05/11 11:30:32;;;;;;;0.10;0.10;;;;;;;25.69;36.06;98768.13;1872586;75;28081;-50
2023/05/11 11:33:23;;;;;;;0.20;0.20;;;;;;;25.69;36.04;98766.75;1858633;76;28116;-53
2023/05/11 11:36:11;;;;;;;0.10;0.10;;;;;;;25.73;35.98;98757.39;1896446;75;28392;-51
2023/05/11 11:39:02;;;;;;;0.20;0.20;;;;;;;25.71;35.96;98754.92;1862882;76;28236;-51
2023/05/11 11:42:05;;;;;;;0.10;0.10;;;;;;;25.70;35.99;98757.93;1888479;74;28044;-53
2023/05/11 11:44:57;;;;;;;0.10;0.10;;;;;;;25.70;35.97;98756.01;1866927;76;28203;-51
2023/05/11 11:47:48;;;;;;;0.20;0.20;;;;;;;25.71;35.98;98752.72;1832900;77;28227;-51
2023/05/11 11:50:36;;;;;;;0.13;0.13;;;;;;;25.72;35.94;98746.13;1863344;76;28186;-52
2023/05/11 11:53:40;;;;;;;0.20;0.20;;;;;;;25.70;35.91;98748.30;1828352;77;28383;-52
2023/05/11 11:56:31;;;;;;;0.30;0.30;;;;;;;25.69;35.89;98739.25;1837535;77;28186;-53
2023/05/11 11:59:20;;;;;;;0.40;0.40;;;;;;;25.67;35.88;98738.66;1844565;76;28269;-52
2023/05/11 12:02:11;;;;;;;0.15;0.15;;;;;;;25.68;35.96;98729.33;1844011;76;28284;-51
2023/05/11 12:05:18;;;;;;;0.25;0.20;;;;;;;25.69;35.92;98738.41;1885066;74;28136;-53
2023/05/11 12:08:06;;;;;;;0.25;0.20;;;;;;;25.69;35.94;98737.88;1860029;76;30986;-53
2023/05/11 12:10:54;;;;;;;0.33;0.33;;;;;;;25.70;35.91;98735.92;1841648;77;28172;-51
2023/05/11 12:13:43;;;;;;;0.17;0.17;;;;;;;25.68;35.94;98732.62;1837523;77;36313;-49
2023/05/11 12:16:31;;;;;;;0.42;0.42;;;;;;;25.68;35.96;98722.45;1842292;77;28145;-50
2023/05/11 12:19:22;;;;;;;0.17;0.17;;;;;;;25.69;35.89;98722.74;1856099;76;28200;-50
2023/05/11 12:22:13;;;;;;;0.40;0.25;;;;;;;25.68;35.93;98711.99;1873278;76;28177;-51
2023/05/11 12:25:06;;;;;;;0.17;0.17;;;;;;;25.71;35.83;98712.83;1868248;76;28142;-50
2023/05/11 12:27:59;;;;;;;0.20;0.20;;;;;;;25.69;35.83;98706.23;1857768;76;28420;-52
2023/05/11 12:30:49;;;;;;;0.37;0.37;;;;;;;25.69;35.81;98704.86;1867701;76;28196;-51
2023/05/11 12:33:46;;;;;;;0.37;0.30;;;;;;;25.68;35.85;98712.83;1862082;76;28325;-51
2023/05/11 12:36:36;;;;;;;0.40;0.30;;;;;;;25.69;35.89;98701.28;1866383;76;28200;-49
2023/05/11 12:39:26;;;;;;;0.23;0.23;;;;;;;25.67;35.87;98696.03;1859389;76;28254;-51
2023/05/11 12:42:18;;;;;;;0.10;0.10;;;;;;;25.69;35.81;98705.41;1843116;76;28403;-53
2023/05/11 12:45:07;;;;;;;0.20;0.20;;;;;;;25.71;35.80;98697.70;1819897;77;31241;-53
2023/05/11 12:47:57;;;;;;;1.20;0.33;;;;;;;25.67;35.82;98689.73;1814020;78;28236;-49
2023/05/11 12:50:47;;;;;;;0.33;0.33;;;;;;;25.68;35.80;98687.23;1857083;76;28223;-53
2023/05/11 12:53:36;;;;;;;0.50;0.50;;;;;;;25.70;35.77;98698.24;1861767;76;28173;-54
2023/05/11 12:56:25;;;;;;;0.20;0.20;;;;;;;25.71;35.77;98699.91;1856872;77;28061;-56
2023/05/11 12:59:29;;;;;;;0.25;0.25;;;;;;;25.72;35.78;98687.78;1895213;75;28103;-52
2023/05/11 13:02:21;;;;;;;0.20;0.20;;;;;;;25.70;35.68;98696.87;1887508;75;28614;-51
2023/05/11 13:05:12;;;;;;;0.20;0.20;;;;;;;25.71;35.70;98694.95;1880347;75;28163;-54
2023/05/11 13:08:04;;;;;;;0.20;0.20;;;;;;;25.71;35.72;98696.33;1868739;76;28072;-52
2023/05/11 13:10:52;;;;;;;0.37;0.33;;;;;;;25.69;35.73;98692.48;1883387;75;28151;-50
2023/05/11 13:13:40;;;;;;;0.20;0.20;;;;;;;25.70;35.73;98680.36;1867853;75;28163;-50
2023/05/11 13:16:33;;;;;;;0.30;0.30;;;;;;;25.71;35.72;98686.16;1896030;75;28133;-52
2023/05/11 13:19:32;;;;;;;0.40;0.40;;;;;;;25.70;35.70;98674.03;1884287;75;28063;-54
2023/05/11 13:22:21;;;;;;;0.10;0.10;;;;;;;25.70;35.65;98679.53;1868925;76;31091;-54
2023/05/11 13:25:10;;;;;;;0.20;0.20;;;;;;;25.68;35.68;98668.81;1878555;75;28064;-52